createdAt,value
2018-04-30T00:00:38.348Z,66.90
2018-04-30T00:03:05.995Z,66.90
2018-04-30T00:05:33.607Z,67.20
2018-04-30T00:08:01.477Z,67.40
2018-04-30T00:10:29.165Z,67.50
2018-04-30T00:12:56.832Z,67.60
2018-04-30T00:15:25.577Z,67.50
2018-04-30T00:17:53.532Z,67.50
2018-04-30T00:20:21.168Z,67.40
2018-04-30T00:22:48.957Z,67.40
2018-04-30T00:25:16.621Z,67.30
2018-04-30T00:27:44.240Z,67.10
2018-04-30T00:30:12.839Z,67.20
2018-04-30T00:32:41.206Z,67.00
2018-04-30T00:35:09.689Z,66.80
2018-04-30T00:37:38.157Z,66.50
2018-04-30T00:40:06.832Z,65.80
2018-04-30T00:42:34.536Z,65.80
2018-04-30T00:45:02.313Z,65.30
2018-04-30T00:47:30.515Z,66.10
2018-04-30T00:49:58.177Z,65.30
2018-04-30T00:52:25.837Z,65.40
2018-04-30T00:55:00.431Z,65.30
2018-04-30T00:57:28.116Z,65.10
2018-04-30T00:59:55.746Z,64.50
2018-04-30T01:02:24.349Z,65.60
2018-04-30T01:04:52.165Z,65.60
2018-04-30T01:07:19.985Z,65.10
2018-04-30T01:09:47.944Z,65.70
2018-04-30T01:12:19.934Z,65.50
2018-04-30T01:14:47.830Z,66.00
2018-04-30T01:17:16.664Z,66.20
2018-04-30T01:19:44.435Z,66.20
2018-04-30T01:22:12.069Z,65.90
2018-04-30T01:24:40.170Z,64.70
2018-04-30T01:27:08.445Z,65.00
2018-04-30T01:29:36.702Z,64.70
2018-04-30T01:32:05.002Z,64.30
2018-04-30T01:34:32.940Z,64.00
2018-04-30T01:37:01.330Z,64.00
2018-04-30T01:39:29.115Z,64.00
2018-04-30T01:41:57.281Z,63.90
2018-04-30T01:44:25.167Z,63.80
2018-04-30T01:46:52.765Z,64.10
2018-04-30T01:49:21.495Z,63.10
2018-04-30T01:51:49.113Z,63.70
2018-04-30T01:54:17.020Z,63.90
2018-04-30T01:56:44.790Z,64.00
2018-04-30T01:59:12.568Z,63.80
2018-04-30T02:01:41.265Z,63.70
2018-04-30T02:04:09.097Z,62.10
2018-04-30T02:06:36.969Z,61.70
2018-04-30T02:09:05.704Z,61.40
2018-04-30T02:11:34.251Z,61.80
2018-04-30T02:14:02.296Z,61.40
2018-04-30T02:16:30.071Z,61.40
2018-04-30T02:18:57.772Z,61.70
2018-04-30T02:21:25.377Z,61.10
2018-04-30T02:23:53.100Z,61.40
2018-04-30T02:26:21.471Z,62.70
2018-04-30T02:28:49.203Z,62.70
2018-04-30T02:31:16.814Z,63.30
2018-04-30T02:33:44.578Z,63.90
2018-04-30T02:36:16.261Z,64.30
2018-04-30T02:38:43.891Z,64.10
2018-04-30T02:41:12.408Z,64.50
2018-04-30T02:43:40.110Z,64.50
2018-04-30T02:46:07.730Z,63.30
2018-04-30T02:48:35.413Z,64.10
2018-04-30T02:51:03.163Z,63.20
2018-04-30T02:53:30.808Z,64.00
2018-04-30T02:55:59.363Z,64.20
2018-04-30T02:58:28.008Z,65.60
2018-04-30T03:00:56.185Z,65.60
2018-04-30T03:03:24.149Z,65.80
2018-04-30T03:05:51.769Z,65.10
2018-04-30T03:08:20.305Z,64.40
2018-04-30T03:10:48.059Z,64.40
2018-04-30T03:13:15.920Z,64.50
2018-04-30T03:15:43.891Z,64.60
2018-04-30T03:18:11.971Z,64.90
2018-04-30T03:20:39.884Z,64.30
2018-04-30T03:23:07.605Z,63.80
2018-04-30T03:25:35.666Z,63.70
2018-04-30T03:28:03.285Z,64.30
2018-04-30T03:30:30.909Z,64.90
2018-04-30T03:32:59.080Z,65.10
2018-04-30T03:35:26.824Z,65.60
2018-04-30T03:37:54.855Z,66.40
2018-04-30T03:40:22.691Z,67.10
2018-04-30T03:42:50.573Z,66.20
2018-04-30T03:45:18.195Z,66.50
2018-04-30T03:47:46.720Z,69.40
2018-04-30T03:50:15.930Z,68.90
2018-04-30T03:52:44.311Z,69.30
2018-04-30T03:55:12.938Z,71.20
2018-04-30T03:57:40.663Z,71.20
2018-04-30T04:03:19.920Z,71.60
2018-04-30T04:05:59.506Z,72.60
2018-04-30T04:08:27.317Z,73.70
2018-04-30T04:10:56.116Z,75.70
2018-04-30T04:13:24.729Z,75.00
2018-04-30T04:15:53.016Z,75.00
2018-04-30T04:18:20.875Z,76.00
2018-04-30T04:20:48.942Z,75.50
2018-04-30T04:23:16.744Z,76.20
2018-04-30T04:25:44.400Z,75.90
2018-04-30T04:28:12.236Z,76.10
2018-04-30T04:30:39.897Z,74.80
2018-04-30T04:33:07.496Z,76.20
2018-04-30T04:35:36.229Z,76.60
2018-04-30T04:38:03.940Z,76.50
2018-04-30T04:40:32.305Z,73.90
2018-04-30T04:43:00.297Z,73.90
2018-04-30T04:45:28.055Z,74.80
2018-04-30T04:47:56.001Z,74.40
2018-04-30T04:50:23.870Z,74.30
2018-04-30T04:52:51.582Z,74.20
2018-04-30T04:55:19.350Z,73.50
2018-04-30T04:57:47.830Z,74.00
2018-04-30T05:00:15.708Z,73.90
2018-04-30T05:02:45.137Z,74.70
2018-04-30T05:05:13.163Z,74.70
2018-04-30T05:07:40.875Z,74.20
2018-04-30T05:10:08.620Z,74.50
2018-04-30T05:12:36.817Z,74.90
2018-04-30T05:15:04.557Z,75.30
2018-04-30T05:17:32.352Z,75.20
2018-04-30T05:20:00.853Z,75.10
2018-04-30T05:22:28.632Z,74.60
2018-04-30T05:25:00.595Z,74.70
2018-04-30T05:27:29.794Z,72.60
2018-04-30T05:29:59.820Z,72.60
2018-04-30T05:32:28.755Z,71.80
2018-04-30T05:34:58.296Z,71.60
2018-04-30T05:37:26.430Z,71.90
2018-04-30T05:39:54.063Z,71.00
2018-04-30T05:42:22.865Z,71.10
2018-04-30T05:44:50.665Z,71.10
2018-04-30T05:47:19.179Z,70.30
2018-04-30T05:49:47.349Z,70.20
2018-04-30T05:52:15.850Z,70.30
2018-04-30T05:54:44.455Z,70.30
2018-04-30T05:57:12.013Z,70.20
2018-04-30T05:59:39.829Z,70.90
2018-04-30T06:02:07.894Z,69.50
2018-04-30T06:04:35.740Z,69.40
2018-04-30T06:07:03.796Z,68.70
2018-04-30T06:09:31.643Z,68.60
2018-04-30T06:12:00.086Z,68.90
2018-04-30T06:14:28.180Z,68.00
2018-04-30T06:16:56.801Z,68.40
2018-04-30T06:19:24.608Z,68.40
2018-04-30T06:21:53.156Z,67.40
2018-04-30T06:24:20.946Z,67.30
2018-04-30T06:26:48.882Z,67.70
2018-04-30T06:29:17.749Z,67.60
2018-04-30T06:31:45.522Z,66.30
2018-04-30T06:34:13.432Z,66.80
2018-04-30T06:36:41.580Z,65.90
2018-04-30T06:39:09.664Z,66.80
2018-04-30T06:41:37.737Z,65.60
2018-04-30T06:44:05.610Z,65.50
2018-04-30T06:46:33.534Z,66.30
2018-04-30T06:49:01.428Z,65.20
2018-04-30T06:51:29.201Z,64.20
2018-04-30T06:53:57.171Z,63.40
2018-04-30T06:56:24.944Z,63.40
2018-04-30T06:58:52.694Z,62.80
2018-04-30T07:01:21.003Z,62.30
2018-04-30T07:03:48.724Z,63.40
2018-04-30T07:06:17.620Z,62.90
2018-04-30T07:08:46.006Z,62.80
2018-04-30T07:11:13.665Z,61.70
2018-04-30T07:13:42.343Z,61.90
2018-04-30T07:16:11.252Z,59.70
2018-04-30T07:18:40.026Z,59.90
2018-04-30T07:21:07.768Z,59.90
2018-04-30T07:23:35.359Z,58.30
2018-04-30T07:26:03.398Z,58.90
2018-04-30T07:28:31.283Z,57.80
2018-04-30T07:30:58.973Z,57.80
2018-04-30T07:33:26.541Z,57.60
2018-04-30T07:35:54.113Z,57.70
2018-04-30T07:38:22.186Z,55.70
2018-04-30T07:40:49.854Z,54.60
2018-04-30T07:43:18.463Z,55.20
2018-04-30T07:45:46.103Z,55.20
2018-04-30T07:48:14.712Z,53.30
2018-04-30T07:50:43.490Z,53.30
2018-04-30T07:53:11.869Z,53.90
2018-04-30T07:55:39.608Z,53.90
2018-04-30T07:58:08.228Z,51.90
2018-04-30T08:00:36.032Z,51.80
2018-04-30T08:03:03.907Z,52.90
2018-04-30T08:05:31.586Z,52.90
2018-04-30T08:07:59.506Z,50.40
2018-04-30T08:10:27.967Z,49.80
2018-04-30T08:12:56.059Z,49.80
2018-04-30T08:15:24.032Z,50.20
2018-04-30T08:17:53.291Z,48.70
2018-04-30T08:20:20.983Z,48.60
2018-04-30T08:22:48.764Z,49.20
2018-04-30T08:25:16.390Z,47.30
2018-04-30T08:27:45.295Z,48.50
2018-04-30T08:30:12.937Z,46.30
2018-04-30T08:32:41.910Z,46.60
2018-04-30T08:35:09.504Z,46.60
2018-04-30T08:37:37.174Z,43.80
2018-04-30T08:40:04.953Z,45.90
2018-04-30T08:42:32.836Z,43.00
2018-04-30T08:45:01.470Z,43.00
2018-04-30T08:47:29.078Z,42.30
2018-04-30T08:49:57.026Z,42.30
2018-04-30T08:52:25.096Z,40.90
2018-04-30T08:54:52.758Z,43.10
2018-04-30T08:57:20.728Z,41.80
2018-04-30T08:59:48.380Z,42.60
2018-04-30T09:02:16.305Z,40.50
2018-04-30T09:04:44.940Z,39.50
2018-04-30T09:07:13.625Z,40.50
2018-04-30T09:09:41.714Z,41.10
2018-04-30T09:12:09.567Z,39.40
2018-04-30T09:14:37.429Z,39.50
2018-04-30T09:17:05.337Z,38.90
2018-04-30T09:19:33.062Z,38.90
2018-04-30T09:22:00.825Z,40.70
2018-04-30T09:24:28.400Z,36.90
2018-04-30T09:26:56.157Z,40.00
2018-04-30T09:29:23.762Z,38.50
2018-04-30T09:31:52.247Z,37.30
2018-04-30T09:34:20.164Z,37.30
2018-04-30T09:36:47.882Z,38.80
2018-04-30T09:39:15.605Z,37.90
2018-04-30T09:41:43.233Z,38.20
2018-04-30T09:44:10.860Z,37.00
2018-04-30T09:46:39.310Z,33.60
2018-04-30T09:49:07.049Z,33.70
2018-04-30T09:51:35.959Z,34.70
2018-04-30T09:54:03.757Z,34.80
2018-04-30T09:56:33.077Z,34.00
2018-04-30T09:59:01.606Z,34.50
2018-04-30T10:01:29.991Z,34.80
2018-04-30T10:03:58.403Z,34.40
2018-04-30T10:06:26.797Z,34.10
2018-04-30T10:08:55.211Z,34.40
2018-04-30T10:11:23.063Z,34.50
2018-04-30T10:13:50.782Z,32.90
2018-04-30T10:16:19.219Z,34.80
2018-04-30T10:18:46.934Z,34.90
2018-04-30T10:21:14.697Z,33.70
2018-04-30T10:23:42.568Z,31.80
2018-04-30T10:26:10.497Z,31.60
2018-04-30T10:28:38.992Z,33.80
2018-04-30T10:31:07.918Z,35.80
2018-04-30T10:33:36.311Z,34.10
2018-04-30T10:36:03.968Z,34.00
2018-04-30T10:38:31.890Z,32.40
2018-04-30T10:40:59.609Z,31.40
2018-04-30T10:43:27.201Z,32.80
2018-04-30T10:45:54.975Z,32.30
2018-04-30T10:48:22.603Z,33.80
2018-04-30T10:50:50.195Z,34.00
2018-04-30T10:53:17.847Z,34.80
2018-04-30T10:55:45.604Z,34.20
2018-04-30T10:58:13.353Z,33.40
2018-04-30T11:00:41.030Z,33.10
2018-04-30T11:03:08.669Z,31.00
2018-04-30T11:05:36.248Z,34.20
2018-04-30T11:08:04.638Z,32.30
2018-04-30T11:10:32.743Z,32.10
2018-04-30T11:13:00.404Z,31.30
2018-04-30T11:15:28.190Z,30.30
2018-04-30T11:17:56.863Z,30.60
2018-04-30T11:20:25.309Z,29.80
2018-04-30T11:22:52.877Z,29.80
2018-04-30T11:25:21.353Z,30.00
2018-04-30T11:27:49.054Z,30.00
2018-04-30T11:30:18.215Z,30.60
2018-04-30T11:32:45.861Z,30.60
2018-04-30T11:35:15.168Z,30.00
2018-04-30T11:37:42.836Z,30.00
2018-04-30T11:40:10.519Z,32.50
2018-04-30T11:42:38.929Z,32.60
2018-04-30T11:45:06.650Z,32.70
2018-04-30T11:47:34.667Z,29.60
2018-04-30T11:50:03.220Z,29.40
2018-04-30T11:52:30.863Z,29.90
2018-04-30T11:54:59.308Z,30.30
2018-04-30T11:57:26.976Z,30.30
2018-04-30T11:59:54.636Z,29.50
2018-04-30T12:02:23.112Z,28.90
2018-04-30T12:04:51.179Z,28.90
2018-04-30T12:07:18.962Z,30.00
2018-04-30T12:09:46.910Z,29.20
2018-04-30T12:12:14.525Z,29.30
2018-04-30T12:14:42.245Z,28.70
2018-04-30T12:17:10.754Z,29.10
2018-04-30T12:19:39.256Z,29.50
2018-04-30T12:22:07.748Z,29.70
2018-04-30T12:24:35.866Z,29.70
2018-04-30T12:27:03.581Z,29.30
2018-04-30T12:29:32.155Z,28.80
2018-04-30T12:32:01.457Z,28.90
2018-04-30T12:34:31.074Z,29.70
2018-04-30T12:36:59.945Z,29.70
2018-04-30T12:39:28.071Z,29.70
2018-04-30T12:41:55.738Z,29.50
2018-04-30T12:44:24.368Z,30.90
2018-04-30T12:46:52.755Z,30.40
2018-04-30T12:49:21.203Z,30.00
2018-04-30T12:51:48.897Z,30.00
2018-04-30T12:54:16.528Z,28.70
2018-04-30T12:56:44.273Z,28.90
2018-04-30T12:59:11.926Z,29.10
2018-04-30T13:01:39.561Z,30.10
2018-04-30T13:04:07.201Z,29.50
2018-04-30T13:06:35.680Z,30.40
2018-04-30T13:09:04.176Z,30.50
2018-04-30T13:11:31.803Z,30.50
2018-04-30T13:13:59.529Z,30.00
2018-04-30T13:16:27.868Z,30.90
2018-04-30T13:18:56.453Z,31.30
2018-04-30T13:21:24.881Z,30.60
2018-04-30T13:23:52.479Z,30.50
2018-04-30T13:26:20.048Z,30.20
2018-04-30T13:28:48.427Z,29.40
2018-04-30T13:31:16.169Z,29.40
2018-04-30T13:33:43.819Z,31.20
2018-04-30T13:36:11.521Z,30.70
2018-04-30T13:38:40.368Z,29.90
2018-04-30T13:41:08.069Z,29.80
2018-04-30T13:43:36.776Z,30.00
2018-04-30T13:46:04.322Z,30.00
2018-04-30T13:48:32.055Z,30.20
2018-04-30T13:51:00.380Z,30.50
2018-04-30T13:53:28.140Z,30.60
2018-04-30T13:55:55.905Z,29.90
2018-04-30T13:58:24.004Z,30.40
2018-04-30T14:00:51.589Z,31.00
2018-04-30T14:03:19.291Z,31.10
2018-04-30T14:05:46.873Z,30.70
2018-04-30T14:08:14.483Z,31.20
2018-04-30T14:10:42.103Z,30.00
2018-04-30T14:13:09.742Z,30.10
2018-04-30T14:15:37.394Z,29.80
2018-04-30T14:18:05.840Z,30.70
2018-04-30T14:20:33.567Z,30.70
2018-04-30T14:23:01.405Z,30.30
2018-04-30T14:25:29.898Z,31.10
2018-04-30T14:27:57.648Z,31.00
2018-04-30T14:30:26.262Z,30.80
2018-04-30T14:32:53.872Z,30.70
2018-04-30T14:35:22.623Z,30.00
2018-04-30T14:37:50.300Z,30.00
2018-04-30T14:40:18.177Z,30.50
2018-04-30T14:42:45.982Z,30.70
2018-04-30T14:45:13.650Z,30.90
2018-04-30T14:47:41.537Z,30.50
2018-04-30T14:50:09.220Z,31.10
2018-04-30T14:52:37.620Z,31.80
2018-04-30T14:55:05.338Z,32.60
2018-04-30T14:57:33.641Z,32.90
2018-04-30T15:00:01.590Z,32.10
2018-04-30T15:02:29.281Z,32.20
2018-04-30T15:04:56.997Z,32.10
2018-04-30T15:07:24.634Z,32.70
2018-04-30T15:09:52.492Z,33.80
2018-04-30T15:12:21.047Z,33.70
2018-04-30T15:14:49.282Z,32.30
2018-04-30T15:17:20.152Z,33.30
2018-04-30T15:19:47.952Z,33.30
2018-04-30T15:22:16.036Z,33.90
2018-04-30T15:24:44.482Z,32.90
2018-04-30T15:27:12.176Z,32.90
2018-04-30T15:29:40.190Z,33.10
2018-04-30T15:32:08.892Z,32.40
2018-04-30T15:34:36.738Z,32.40
2018-04-30T15:37:04.347Z,33.50
2018-04-30T15:39:31.988Z,33.40
2018-04-30T15:41:59.743Z,33.40
2018-04-30T15:44:27.448Z,32.50
2018-04-30T15:46:55.158Z,34.00
2018-04-30T15:49:22.750Z,33.70
2018-04-30T15:51:50.781Z,33.20
2018-04-30T15:54:19.115Z,34.40
2018-04-30T15:56:47.546Z,33.60
2018-04-30T15:59:15.207Z,33.00
2018-04-30T16:01:42.916Z,33.50
2018-04-30T16:04:10.648Z,33.80
2018-04-30T16:06:38.315Z,34.00
2018-04-30T16:09:06.020Z,34.30
2018-04-30T16:11:33.697Z,34.70
2018-04-30T16:14:01.459Z,33.30
2018-04-30T16:16:29.886Z,33.30
2018-04-30T16:18:57.442Z,33.20
2018-04-30T16:21:25.349Z,32.70
2018-04-30T16:23:52.982Z,32.70
2018-04-30T16:26:20.635Z,32.20
2018-04-30T16:28:48.371Z,33.70
2018-04-30T16:31:16.016Z,33.10
2018-04-30T16:33:43.740Z,32.80
2018-04-30T16:36:12.219Z,34.50
2018-04-30T16:38:39.838Z,34.40
2018-04-30T16:41:07.461Z,34.00
2018-04-30T16:43:35.820Z,36.80
2018-04-30T16:46:03.599Z,36.70
2018-04-30T16:48:32.006Z,40.80
2018-04-30T16:50:59.763Z,40.20
2018-04-30T16:53:27.404Z,40.90
2018-04-30T16:55:55.797Z,41.90
2018-04-30T16:58:23.550Z,41.80
2018-04-30T17:00:51.531Z,42.30
2018-04-30T17:03:19.893Z,42.40
2018-04-30T17:05:47.729Z,42.30
2018-04-30T17:08:15.411Z,42.50
2018-04-30T17:10:43.188Z,43.10
2018-04-30T17:13:11.609Z,44.70
2018-04-30T17:15:39.339Z,44.60
2018-04-30T17:18:07.689Z,45.30
2018-04-30T17:23:10.887Z,45.40
2018-04-30T17:25:38.600Z,44.50
2018-04-30T17:28:06.418Z,44.70
2018-04-30T17:30:34.652Z,49.00
2018-04-30T17:33:02.275Z,48.70
2018-04-30T17:35:29.970Z,47.80
2018-04-30T17:37:57.677Z,47.00
2018-04-30T17:40:25.337Z,47.10
2018-04-30T17:42:53.138Z,48.50
2018-04-30T17:45:20.667Z,48.00
2018-04-30T17:47:48.309Z,48.00
2018-04-30T17:50:15.928Z,46.90
2018-04-30T17:52:43.635Z,46.90
2018-04-30T17:55:11.303Z,47.30
2018-04-30T17:57:39.736Z,49.60
2018-04-30T18:00:08.830Z,48.60
2018-04-30T18:02:37.544Z,49.90
2018-04-30T18:05:06.317Z,50.30
2018-04-30T18:07:34.079Z,50.30
2018-04-30T18:10:01.778Z,49.70
2018-04-30T18:12:29.424Z,49.70
2018-04-30T18:14:57.455Z,49.90
2018-04-30T18:17:25.118Z,48.80
2018-04-30T18:19:58.458Z,49.50
2018-04-30T18:22:26.117Z,49.50
2018-04-30T18:24:55.281Z,50.20
2018-04-30T18:27:23.824Z,50.60
2018-04-30T18:29:51.630Z,50.60
2018-04-30T18:32:19.361Z,51.10
2018-04-30T18:34:47.881Z,52.40
2018-04-30T18:37:16.674Z,52.50
2018-04-30T18:39:44.352Z,52.40
2018-04-30T18:42:12.088Z,52.30
2018-04-30T18:44:40.417Z,52.40
2018-04-30T18:47:08.219Z,52.40
2018-04-30T18:49:35.785Z,52.30
2018-04-30T18:52:03.891Z,52.60
2018-04-30T18:54:31.567Z,52.80
2018-04-30T18:56:59.315Z,53.60
2018-04-30T18:59:26.998Z,53.10
2018-04-30T19:01:55.567Z,53.20
2018-04-30T19:04:23.251Z,53.20
2018-04-30T19:06:51.554Z,54.00
2018-04-30T19:09:19.953Z,54.30
2018-04-30T19:11:48.411Z,54.30
2018-04-30T19:14:16.106Z,54.30
2018-04-30T19:16:44.664Z,54.10
2018-04-30T19:19:13.123Z,54.30
2018-04-30T19:21:40.856Z,54.20
2018-04-30T19:24:08.480Z,54.80
2018-04-30T19:26:36.174Z,55.20
2018-04-30T19:29:03.819Z,55.10
2018-04-30T19:31:31.607Z,56.30
2018-04-30T19:33:59.246Z,55.10
2018-04-30T19:36:26.956Z,57.30
2018-04-30T19:38:54.696Z,57.40
2018-04-30T19:41:22.270Z,57.10
2018-04-30T19:43:49.995Z,56.90
2018-04-30T19:46:18.787Z,57.70
2018-04-30T19:48:46.681Z,57.60
2018-04-30T19:51:15.018Z,58.40
2018-04-30T19:53:42.579Z,58.50
2018-04-30T19:56:11.189Z,59.80
2018-04-30T19:58:38.965Z,59.70
2018-04-30T20:01:06.713Z,59.20
2018-04-30T20:03:34.376Z,63.00
2018-04-30T20:06:02.342Z,61.40
2018-04-30T20:08:30.303Z,61.70
2018-04-30T20:10:58.408Z,61.70
2018-04-30T20:13:27.096Z,64.50
2018-04-30T20:15:55.604Z,59.50
2018-04-30T20:18:24.340Z,59.70
2018-04-30T20:20:52.909Z,59.00
2018-04-30T20:23:20.731Z,58.90
2018-04-30T20:25:49.825Z,60.10
2018-04-30T20:28:17.447Z,60.10
2018-04-30T20:30:45.213Z,57.80
2018-04-30T20:33:12.977Z,56.30
2018-04-30T20:35:40.697Z,54.20
2018-04-30T20:38:09.550Z,52.50
2018-04-30T20:40:37.201Z,52.50
2018-04-30T20:43:06.144Z,52.10
2018-04-30T20:45:34.643Z,52.40
2018-04-30T20:48:02.282Z,52.30
2018-04-30T20:50:30.247Z,51.90
2018-04-30T20:52:57.833Z,54.10
2018-04-30T20:55:28.557Z,51.80
2018-04-30T20:57:58.074Z,51.70
2018-04-30T21:00:26.061Z,51.70
2018-04-30T21:02:53.723Z,51.20
2018-04-30T21:05:21.810Z,51.30
2018-04-30T21:07:50.206Z,52.20
2018-04-30T21:10:18.761Z,51.20
2018-04-30T21:12:46.736Z,51.10
2018-04-30T21:15:15.873Z,50.70
2018-04-30T21:17:44.611Z,51.70
2018-04-30T21:20:12.325Z,51.60
2018-04-30T21:22:40.036Z,51.60
2018-04-30T21:25:07.845Z,51.40
2018-04-30T21:27:35.883Z,51.00
2018-04-30T21:30:03.636Z,50.70
2018-04-30T21:32:31.400Z,51.40
2018-04-30T21:34:59.071Z,52.30
2018-04-30T21:37:27.032Z,51.30
2018-04-30T21:39:54.636Z,50.80
2018-04-30T21:42:22.535Z,51.40
2018-04-30T21:44:50.093Z,51.20
2018-04-30T21:47:17.890Z,52.10
2018-04-30T21:49:45.611Z,51.40
2018-04-30T21:52:14.113Z,52.40
2018-04-30T21:54:41.725Z,52.30
2018-04-30T21:57:09.359Z,52.90
2018-04-30T21:59:37.156Z,51.90
2018-04-30T22:02:04.901Z,53.30
2018-04-30T22:04:32.710Z,52.30
2018-04-30T22:07:01.610Z,52.60
2018-04-30T22:09:30.323Z,52.50
2018-04-30T22:11:58.089Z,52.50
2018-04-30T22:14:26.062Z,52.60
2018-04-30T22:16:53.684Z,52.50
2018-04-30T22:19:22.149Z,52.60
2018-04-30T22:21:50.668Z,53.40
2018-04-30T22:24:18.546Z,52.70
2018-04-30T22:26:46.306Z,52.90
2018-04-30T22:29:13.985Z,52.40
2018-04-30T22:31:42.412Z,52.60
2018-04-30T22:34:10.935Z,52.70
2018-04-30T22:36:38.494Z,52.70
2018-04-30T22:39:06.320Z,52.70
2018-04-30T22:41:34.682Z,52.50
2018-04-30T22:44:02.605Z,52.50
2018-04-30T22:46:30.194Z,52.80
2018-04-30T22:48:58.144Z,53.10
2018-04-30T22:51:25.910Z,53.00
2018-04-30T22:53:53.692Z,53.20
2018-04-30T22:56:21.733Z,53.60
2018-04-30T22:58:49.468Z,53.30
2018-04-30T23:01:17.964Z,53.40
2018-04-30T23:03:45.617Z,53.40
2018-04-30T23:06:13.343Z,53.60
2018-04-30T23:08:41.271Z,53.80
2018-04-30T23:11:09.137Z,53.40
2018-04-30T23:13:36.752Z,53.70
2018-04-30T23:16:05.383Z,54.10
2018-04-30T23:18:33.044Z,54.00
2018-04-30T23:21:00.649Z,54.10
2018-04-30T23:23:29.321Z,54.20
2018-04-30T23:25:56.904Z,54.20
2018-04-30T23:28:24.534Z,54.30
2018-04-30T23:30:52.159Z,54.50
2018-04-30T23:33:20.860Z,54.70
2018-04-30T23:35:49.335Z,55.80
2018-04-30T23:38:17.007Z,55.00
2018-04-30T23:40:44.633Z,55.10
2018-04-30T23:43:12.635Z,55.20
2018-04-30T23:45:40.398Z,55.60
2018-04-30T23:48:09.186Z,55.50
2018-04-30T23:50:36.950Z,55.50
2018-04-30T23:53:04.714Z,55.40
2018-04-30T23:55:32.292Z,55.90
2018-04-30T23:58:00.242Z,55.70
